CheckWX is a tool to help pilots better visualize weather data.  It is not intended as a substitute for an official pre-flight weather briefing.

18:41:55 UTC

ENFB METAR
Oslo, Fornebu Airport
Oslo, Norway
Current

22 mins ago

ENFB 241820Z AUTO 12031KT 9999NDV BKN085/// BKN100/// 14/00 Q1008 W///S3
Observed
Apr-24 @ 18:20 UTC
Wind
  • 120° at 31 KTS
Visibility
Cloud Levels
  • Broken at 8,500' AGL
  • Broken at 10,000' AGL
Temperature
14°C / 57°F
Dewpoint
C / 32°F
Humidity
39%
Altimeter
29.76" Hg
Pressure
1007.92 hPa
Previous

52 mins ago

ENFB 241750Z AUTO 11033KT 9999NDV SCT081/// BKN096/// 14/01 Q1008 W///S3
Observed
Apr-24 @ 17:50 UTC
Wind
  • 110° at 33 KTS
Visibility
Cloud Levels
  • Scattered at 8,100' AGL
  • Broken at 9,600' AGL
Temperature
14°C / 57°F
Dewpoint
C / 34°F
Humidity
41%
Altimeter
29.76" Hg
Pressure
1007.92 hPa
Previous

1 hour ago

ENFB 241720Z AUTO 11029KT 9999NDV BKN085/// 14/01 Q1009 W///S3
Observed
Apr-24 @ 17:20 UTC
Wind
  • 110° at 29 KTS
Visibility
Cloud Levels
  • Broken at 8,500' AGL
Temperature
14°C / 57°F
Dewpoint
C / 34°F
Humidity
41%
Altimeter
29.79" Hg
Pressure
1008.92 hPa